Lucas, Kansas
Current Conditions -  °F | °C
As of 4:53 PM on Thursday 20 Nov 2014 (Local Time) from KRSL Reporting Station
Clear Clear  
Wind Chill: 40°   Ceiling: Unl
Heat Index: 45°   Visibility: 10mi
Dew Point: 23°   Wind: 9mph
Humidity: 42%   Direction: 110°ESE
Pressure: 30.06"   Gusts: NA
Location:  39.06°N, 98.54°W
Report Text: KRSL 202253Z AUTO 11008KT 10SM CLR 07/M05 A3006 RMK AO2 SLP195 T00721050
Loading
Personal Weather Stations






























Interactive Weather Map New forecast layout! Learn more

10-Day Weather Forecast

Advertisements
Track Severe Weather on mobile